Alsip, IL

5:59 PM CST on November 21, 2014 (GMT -0600)
151st & Central Ave. | Change Station
CLOSE
Current Station
Personal Weather Station
Location: Oak Forest, IL
Elevation: 645 ft
Nearby Weather Stations
Active Advisory: Freezing Rain Advisory Active Notice: Public Information Statement

Elev 645 ft 41.62 °N, 87.76 °W | Updated 4 seconds ago

Clear
Clear
29.1 °F
Feels Like 23 °F
N
5.6
Wind Variable Wind from SSE
Gusts 9.2 mph

Today
High -- | Low -- °F
--% Chance of Precip.
Yesterday
High -- | Low -- °F
Precip. -- in
6:47 AM 4:26 PM
Waning Crescent, 0% visible
Pressure 30.38 in
Visibility 10.0 miles
Clouds Few 25000 ft
Windchill 23 °F
Dew Point 9 °F
Humidity 43%
Rainfall 0.00 in
Snow Depth Not available.
UV 0 out of 12
Pollen .10 out of 12
Air Quality Not available.
Flu Activity Not available.
METAR KMDW 212353Z 16007KT 10SM FEW250 00/M15 A3032 RMK AO2 SLP285 T00001150 10017 21006 56009

More Conditions Fewer Conditions

Pressure 30.38 in
Visibility 10.0 miles
Clouds Few 25000 ft
Windchill 23 °F
Dew Point 9 °F
Humidity 43%
Rainfall 0.00 in
Snow Depth Not available.
UV 0 out of 12
Pollen .10 out of 12
Air Quality Not available.
Flu Activity Not available.
METAR KMDW 212353Z 16007KT 10SM FEW250 00/M15 A3032 RMK AO2 SLP285 T00001150 10017 21006 56009

More Conditions Fewer Conditions

10-Day Weather Forecast

Almanac

Astronomy

Nov. 21, 2014 Rise Set
Actual Time
Civil Twilight
Nautical Twilight
Astronomical Twilight
Moon
Length of Visible Light
Length of Day
Tomorrow will be .
, % of the Moon is Illuminated

Today's Extremes

State Highs State Lows

Community

WunderPhotos

Upload Photos

1,772,740 photos uploaded!

WunderBlogs® & News

Nearby

Air Quality

  Air Quality AQ Index Pollutant
Not available.

Snow Depth

Station Depth Elevation

Earthquake Activity

City Distance Mag. Time & Date
Minimum magnitude displayed is 2.5.

Coastal Water Temperatures

Place Temperature

Nearby Weather Stations